Bob Hope Airport
KBUR : now visible

Aeroporto :











RITROVATECI SU...

 
LOGIN :

Iscrizione | Disclaimer

   EN    FR    IT 

 









Sommario :    VFR   VFR Marginale   IFR   IFR Intensivo   IFR Molto Intensivo
Visibilità : 
Base nubi : 
>= 8 km
>= 3000ft
5 / 8 km
1000 / 3000 ft
1500m / 5 km
500 / 1000 ft
800 / 1500m
200 / 500 ft
< 800m
< 200 ft
Simboli :   Temporali  Nebbia  Neve Forte  Precipitazioni Forti  Vento > 20 kt






- Altitudine del aeroporto : 778 ft
- Codice IATA : BUR


KBUR - Bob Hope

ULTIMO METAR :
  • 250953Z 11004KT 10SM CLR 16/13 A2998 RMK AO2 SLP139 T01610133 $

METARs OBSOLETI :
  • 250853Z 09006KT 10SM CLR 17/13 A2998 RMK AO2 SLP139 T01670128 56004 $
  • 250753Z 12005KT 10SM CLR 17/13 A2998 RMK AO2 SLP140 T01720133 402670156 $

TAF KBUR
Valido dal 25 a 06 ore il 26 a 06 ore UTC


250527Z 2506/2606 13005KT P6SM SKC
FM252000 18010KT P6SM SKC
FM260400 13006KT P6SM SKC
FIR KZLA / America del Nord



MetMap, La meteo Aeronautica in un colpo d'occhio ! - Copyright ORBIFLY Dicembre 2007 - Disclaimer

ORBIFLY MET'MAP TEAM :

Programmazione e sviluppo : Alexandra Zaïnal
Concezione : Baudouin d'Aumeries
Aiuto per la programmazione : Marc-Olivier Méhu
Supporto tecnico e logistico : Manuel Goepfert
Aiuto per la traduzione : Arnaldo La Scala

Contatto : metmap@orbifly.com




FONTI E CREDITI :

   NOAA       Earth
Advisory